createdAt,value
2022-10-09T06:00:37.586Z,3.13
2022-10-09T06:06:32.131Z,3.78
2022-10-09T06:12:24.052Z,1.90
2022-10-09T06:18:16.158Z,5.55
2022-10-09T06:24:08.558Z,5.97
2022-10-09T06:30:01.100Z,4.43
2022-10-09T06:36:00.795Z,2.90
2022-10-09T06:41:58.471Z,1.70
2022-10-09T06:48:05.532Z,4.40
2022-10-09T06:53:58.744Z,1.77
2022-10-09T06:59:52.192Z,4.55
2022-10-09T07:05:44.533Z,3.45
2022-10-09T07:11:37.899Z,1.43
2022-10-09T07:17:30.112Z,1.95
2022-10-09T07:23:22.616Z,2.10
2022-10-09T07:29:15.640Z,3.67
2022-10-09T07:35:07.501Z,2.10
2022-10-09T07:41:00.673Z,4.13
2022-10-09T07:46:52.832Z,2.60
2022-10-09T07:52:45.763Z,2.80
2022-10-09T07:58:38.553Z,5.85
2022-10-09T08:04:30.691Z,3.80
2022-10-09T08:10:23.074Z,1.20
2022-10-09T08:16:16.290Z,1.30
2022-10-09T08:22:09.871Z,2.20
2022-10-09T08:28:04.347Z,2.55
2022-10-09T08:33:57.859Z,2.08
2022-10-09T08:39:50.759Z,1.90
2022-10-09T08:45:44.073Z,3.83
2022-10-09T08:51:38.898Z,5.90
2022-10-09T08:57:32.893Z,4.07
2022-10-09T09:03:33.651Z,6.03
2022-10-09T09:09:48.838Z,2.85
2022-10-09T09:15:45.014Z,4.65
2022-10-09T09:21:46.892Z,5.28
2022-10-09T09:27:40.732Z,2.05
2022-10-09T09:33:38.078Z,1.27
2022-10-09T09:45:46.853Z,1.73
2022-10-09T09:57:33.171Z,3.63
2022-10-09T10:03:27.472Z,2.88
2022-10-09T10:09:20.611Z,1.48
2022-10-09T10:15:23.606Z,1.35
2022-10-09T10:27:30.411Z,2.80
2022-10-09T10:33:25.641Z,0.80
2022-10-09T10:39:27.253Z,1.17
2022-10-09T10:45:40.052Z,3.75
2022-10-09T10:51:47.072Z,1.73
2022-10-09T10:57:39.169Z,2.22
2022-10-09T11:03:34.694Z,1.10
2022-10-09T11:09:42.456Z,1.20
2022-10-09T11:15:49.036Z,1.95
2022-10-09T11:21:48.205Z,0.93
2022-10-09T11:27:46.866Z,2.53
2022-10-09T11:33:42.117Z,0.60
2022-10-09T11:39:34.863Z,1.45
2022-10-09T11:45:36.779Z,1.10
2022-10-09T11:51:32.111Z,0.68
2022-10-09T11:57:30.808Z,2.40
2022-10-09T12:03:30.358Z,1.75
2022-10-09T12:09:42.296Z,1.23
2022-10-09T12:16:00.856Z,3.17
2022-10-09T12:22:07.761Z,1.75
2022-10-09T12:28:00.747Z,0.70
2022-10-09T12:39:45.720Z,0.35
2022-10-09T12:45:43.333Z,1.65
2022-10-09T12:51:35.456Z,0.60
2022-10-09T12:57:28.177Z,2.75
2022-10-09T13:03:36.848Z,1.00
2022-10-09T13:09:34.446Z,0.38
2022-10-09T13:15:29.328Z,0.43
2022-10-09T13:21:29.066Z,0.47
2022-10-09T13:27:25.638Z,0.40
2022-10-09T13:33:17.739Z,0.95
2022-10-09T13:39:16.507Z,0.52
2022-10-09T13:45:08.612Z,0.30
2022-10-09T13:51:01.777Z,0.60
2022-10-09T13:56:54.832Z,2.03
2022-10-09T14:02:47.809Z,1.27
2022-10-09T14:08:40.651Z,0.43
2022-10-09T14:14:32.860Z,1.50
2022-10-09T14:20:27.247Z,0.40
2022-10-09T14:26:20.110Z,0.57
2022-10-09T14:32:12.912Z,4.80
2022-10-09T14:38:09.378Z,1.95
2022-10-09T14:44:02.895Z,1.40
2022-10-09T14:49:54.635Z,1.85
2022-10-09T14:55:46.680Z,0.80
2022-10-09T15:01:38.898Z,0.75
2022-10-09T15:07:32.119Z,0.85
2022-10-09T15:13:25.019Z,1.42
2022-10-09T15:19:17.839Z,1.10
2022-10-09T15:25:09.730Z,0.95
2022-10-09T15:31:03.160Z,0.90
2022-10-09T15:36:55.709Z,1.17
2022-10-09T15:42:47.975Z,3.08
2022-10-09T15:48:40.918Z,3.03
2022-10-09T15:54:33.258Z,4.45
2022-10-09T16:00:25.922Z,1.53
2022-10-09T16:06:19.470Z,1.35
2022-10-09T16:12:12.231Z,2.55
2022-10-09T16:18:05.106Z,0.85
2022-10-09T16:23:59.300Z,1.10
2022-10-09T16:29:51.868Z,3.95
2022-10-09T16:35:44.138Z,5.45
2022-10-09T16:41:40.990Z,8.95
2022-10-09T16:47:34.328Z,6.53
2022-10-09T16:53:27.159Z,11.27
2022-10-09T16:59:19.353Z,5.38
2022-10-09T17:05:12.060Z,7.88
2022-10-09T17:11:08.170Z,5.07
2022-10-09T17:17:00.057Z,7.80
2022-10-09T17:22:52.359Z,8.23
2022-10-09T17:28:46.562Z,8.57
2022-10-09T17:34:43.218Z,7.07
2022-10-09T17:40:39.309Z,9.45
2022-10-09T17:46:31.618Z,12.60
2022-10-09T17:52:24.197Z,12.77
2022-10-09T17:58:16.908Z,28.70
2022-10-09T18:04:14.538Z,23.80
2022-10-09T18:10:07.658Z,25.35
2022-10-09T18:16:00.193Z,22.17
2022-10-09T18:21:52.518Z,22.75
2022-10-09T18:27:45.348Z,17.83
2022-10-09T18:33:37.877Z,13.73
2022-10-09T18:39:30.315Z,17.83
2022-10-09T18:45:22.509Z,15.30
2022-10-09T18:51:16.647Z,16.60
2022-10-09T18:57:09.477Z,27.77
2022-10-09T19:03:01.470Z,35.90
2022-10-09T19:08:58.057Z,33.05
2022-10-09T19:14:50.136Z,32.05
2022-10-09T19:20:42.519Z,35.95
2022-10-09T19:26:35.578Z,27.25
2022-10-09T19:32:28.798Z,21.38
2022-10-09T19:38:22.098Z,28.27
2022-10-09T19:44:14.568Z,26.77
2022-10-09T19:50:07.181Z,23.88
2022-10-09T19:55:59.639Z,15.95
2022-10-09T20:01:56.581Z,20.95
2022-10-09T20:07:49.757Z,10.23
2022-10-09T20:13:42.519Z,9.00
2022-10-09T20:19:34.627Z,7.57
2022-10-09T20:25:27.168Z,12.48
2022-10-09T20:31:21.401Z,15.65
2022-10-09T20:37:13.489Z,20.63
2022-10-09T20:43:05.710Z,13.77
2022-10-09T20:48:57.937Z,21.90
2022-10-09T20:54:50.530Z,18.80
2022-10-09T21:00:43.165Z,14.07
2022-10-09T21:06:36.349Z,17.92
2022-10-09T21:12:28.810Z,11.10
2022-10-09T21:18:20.717Z,18.25
2022-10-09T21:24:12.807Z,14.82
2022-10-09T21:30:04.767Z,12.38
2022-10-09T21:35:56.855Z,17.00
2022-10-09T21:41:48.853Z,10.07
2022-10-09T21:47:41.056Z,12.95
2022-10-09T21:53:33.991Z,11.00
2022-10-09T21:59:25.865Z,13.00
2022-10-09T22:05:17.530Z,6.18
2022-10-09T22:11:10.538Z,8.80
2022-10-09T22:17:03.588Z,9.47
2022-10-09T22:22:55.667Z,8.82
2022-10-09T22:28:48.045Z,5.97
2022-10-09T22:34:39.385Z,9.57
2022-10-09T22:40:32.045Z,7.38
2022-10-09T22:46:25.577Z,2.95
2022-10-09T22:58:10.047Z,8.38
2022-10-09T23:04:04.307Z,13.07
2022-10-09T23:09:56.647Z,9.95
2022-10-09T23:15:49.068Z,10.65
2022-10-09T23:21:41.869Z,8.30
2022-10-09T23:27:35.158Z,13.85
2022-10-09T23:33:27.107Z,7.25
2022-10-09T23:39:19.104Z,4.25
2022-10-09T23:45:10.878Z,8.70
2022-10-09T23:51:04.405Z,9.35
2022-10-09T23:56:56.787Z,6.90
